createdAt,value
2019-01-24T05:17:58.853Z,59.80
2019-01-24T05:20:35.162Z,58.60
2019-01-24T05:38:23.251Z,58.20
2019-01-24T05:40:59.206Z,58.00
2019-01-24T05:43:35.242Z,57.10
2019-01-24T05:46:23.006Z,59.70
2019-01-24T05:48:59.077Z,62.40
2019-01-24T05:51:40.278Z,58.70
2019-01-24T05:54:15.149Z,57.20
2019-01-24T05:56:55.494Z,57.20
2019-01-24T05:59:31.602Z,58.00
2019-01-24T06:02:05.537Z,58.30
2019-01-24T06:04:42.178Z,58.60
2019-01-24T06:07:18.061Z,59.30
2019-01-24T06:09:57.106Z,58.10
2019-01-24T06:12:32.859Z,56.50
2019-01-24T06:15:10.497Z,54.20
2019-01-24T06:17:45.989Z,56.90
2019-01-24T06:20:21.668Z,56.90
2019-01-24T06:22:57.821Z,57.30
2019-01-24T06:25:45.301Z,56.90
2019-01-24T06:28:22.836Z,58.70
2019-01-24T06:30:58.099Z,60.80
2019-01-24T06:33:36.775Z,59.10
2019-01-24T06:36:11.688Z,59.30
2019-01-24T06:38:46.553Z,60.60
2019-01-24T06:41:22.790Z,61.00
2019-01-24T06:44:04.210Z,59.10
2019-01-24T06:46:40.224Z,59.30
2019-01-24T06:49:17.392Z,59.10
2019-01-24T06:51:53.239Z,60.30
2019-01-24T06:54:29.420Z,60.30
2019-01-24T06:57:06.387Z,60.40
2019-01-24T06:59:41.766Z,56.60
2019-01-24T07:02:18.716Z,56.10
2019-01-24T07:04:54.245Z,57.20
2019-01-24T07:07:32.794Z,56.60
2019-01-24T07:10:10.235Z,57.70
2019-01-24T07:12:45.656Z,57.60
2019-01-24T07:15:22.642Z,59.20
2019-01-24T07:17:59.679Z,59.40
2019-01-24T07:20:35.289Z,58.60
2019-01-24T07:23:10.832Z,58.30
2019-01-24T07:25:52.316Z,56.40
2019-01-24T07:28:27.105Z,56.50
2019-01-24T07:31:03.358Z,56.90
2019-01-24T07:33:42.681Z,57.80
2019-01-24T07:36:19.159Z,58.40
2019-01-24T07:38:56.082Z,58.90
2019-01-24T07:41:32.765Z,58.80
2019-01-24T07:44:19.326Z,58.80
2019-01-24T07:46:54.933Z,59.10
2019-01-24T07:49:30.151Z,58.40
2019-01-24T07:52:10.481Z,56.90
2019-01-24T07:54:43.992Z,54.50
2019-01-24T07:57:19.343Z,53.60
2019-01-24T08:00:04.490Z,53.90
2019-01-24T08:11:56.930Z,51.00
2019-01-24T08:29:59.573Z,53.80
2019-01-24T08:35:45.772Z,49.90
2019-01-24T08:47:18.503Z,49.30
2019-01-24T08:50:06.853Z,50.50
2019-01-24T08:52:44.023Z,47.90
2019-01-24T08:55:32.931Z,46.80
2019-01-24T08:58:28.100Z,45.60
2019-01-24T09:01:03.385Z,48.80
2019-01-24T12:12:23.016Z,42.30
2019-01-24T12:15:14.392Z,42.70
2019-01-24T12:18:04.189Z,38.70
2019-01-24T12:20:43.141Z,36.70
2019-01-24T12:26:23.077Z,37.80
2019-01-24T12:44:21.300Z,38.90
2019-01-24T12:47:13.529Z,38.30
2019-01-24T12:52:56.760Z,38.00
2019-01-24T13:07:42.348Z,39.70
2019-01-24T13:16:28.728Z,39.30
2019-01-24T13:21:58.340Z,40.60
2019-01-24T13:27:38.707Z,41.00
2019-01-24T13:33:37.608Z,39.20
2019-01-24T13:36:25.904Z,43.60
2019-01-24T13:39:12.561Z,43.40
2019-01-24T13:41:53.672Z,41.90
2019-01-24T13:44:29.786Z,41.70
2019-01-24T13:47:06.480Z,44.30
2019-01-24T13:52:47.242Z,45.60
2019-01-24T13:55:28.795Z,46.90
2019-01-24T13:58:07.854Z,45.00
2019-01-24T14:00:54.953Z,46.30
2019-01-24T14:04:38.831Z,45.80
2019-01-24T14:07:17.023Z,43.00
2019-01-24T14:10:07.787Z,44.80
2019-01-24T14:12:47.697Z,45.10
2019-01-24T14:15:24.685Z,45.00
2019-01-24T14:18:04.664Z,48.30
2019-01-24T14:20:40.132Z,49.20
2019-01-24T14:23:19.456Z,49.10
2019-01-24T14:32:15.897Z,52.90
2019-01-24T14:34:58.543Z,52.90
2019-01-24T14:37:39.951Z,53.30
2019-01-24T14:40:21.719Z,53.50
2019-01-24T14:43:13.632Z,53.00
2019-01-24T14:48:53.621Z,55.80
2019-01-24T14:51:38.942Z,55.20
2019-01-24T14:58:54.365Z,53.60
2019-01-24T15:04:42.221Z,57.30
2019-01-24T15:07:20.043Z,55.50
2019-01-24T15:10:00.800Z,55.70
2019-01-24T15:12:44.209Z,56.10
2019-01-24T15:15:38.814Z,56.40
2019-01-24T15:18:24.496Z,56.00
2019-01-24T15:21:09.429Z,54.70
2019-01-24T15:23:57.888Z,55.40
2019-01-24T15:26:46.726Z,55.80
2019-01-24T15:29:35.878Z,54.50
2019-01-24T15:32:20.426Z,53.20
2019-01-24T15:34:59.680Z,56.10
2019-01-24T15:40:35.603Z,56.50
2019-01-24T15:43:20.432Z,53.90
2019-01-24T15:46:01.959Z,56.90
2019-01-24T15:48:42.646Z,58.00
2019-01-24T15:54:20.550Z,56.10
2019-01-24T15:56:57.461Z,56.90
2019-01-24T15:59:33.216Z,56.40
2019-01-24T16:02:07.546Z,55.90
2019-01-24T16:04:42.973Z,55.60
2019-01-24T16:07:31.690Z,54.40
2019-01-24T16:10:13.244Z,56.00
2019-01-24T16:12:52.379Z,54.20
2019-01-24T16:15:30.519Z,52.10
2019-01-24T16:18:00.707Z,54.60
2019-01-24T16:20:31.016Z,57.10
2019-01-24T16:23:00.426Z,57.30
2019-01-24T16:25:31.533Z,56.00
2019-01-24T16:28:00.862Z,56.60
2019-01-24T16:30:31.736Z,55.30
2019-01-24T16:33:01.624Z,53.00
2019-01-24T16:35:31.983Z,54.70
2019-01-24T16:38:09.621Z,55.00
2019-01-24T16:40:39.430Z,54.60
2019-01-24T16:43:09.149Z,54.50
2019-01-24T16:45:45.557Z,58.20
2019-01-24T16:48:16.874Z,55.40
2019-01-24T16:50:47.496Z,54.50
2019-01-24T16:53:16.732Z,56.40
2019-01-24T16:55:46.475Z,58.40
2019-01-24T16:58:16.279Z,57.70
2019-01-24T17:00:56.335Z,59.00
2019-01-24T17:03:26.154Z,59.00
2019-01-24T17:05:56.594Z,60.60
2019-01-24T17:08:29.194Z,60.60
2019-01-24T17:10:59.262Z,61.80
2019-01-24T17:20:00.960Z,61.90
2019-01-24T17:25:43.229Z,65.10
2019-01-24T17:28:16.475Z,66.00
2019-01-24T17:30:53.467Z,63.40
2019-01-24T17:33:42.087Z,62.50
2019-01-24T17:55:12.543Z,63.90
2019-01-24T17:57:53.704Z,65.30
2019-01-24T18:06:47.349Z,69.90
2019-01-24T18:19:54.736Z,74.70
2019-01-24T18:25:51.064Z,75.70
2019-01-24T18:32:00.009Z,75.50
2019-01-24T18:41:00.125Z,74.10
2019-01-24T18:58:18.335Z,72.10
2019-01-24T19:01:10.852Z,75.10
2019-01-24T19:03:45.088Z,74.60
2019-01-24T19:06:20.139Z,77.40
2019-01-24T19:09:08.488Z,77.60
2019-01-24T19:11:56.690Z,77.10
2019-01-24T19:14:35.807Z,74.70
2019-01-24T19:17:19.743Z,80.40
2019-01-24T19:19:57.402Z,77.10
2019-01-24T19:22:33.514Z,72.80
2019-01-24T19:25:19.462Z,73.50
2019-01-24T19:27:55.896Z,74.70
2019-01-24T19:30:39.769Z,72.50
2019-01-24T19:41:59.030Z,75.50
2019-01-24T19:44:37.637Z,77.00
2019-01-24T19:47:20.192Z,71.30
2019-01-24T19:49:57.423Z,71.10
2019-01-24T19:52:33.981Z,72.90
2019-01-24T19:58:20.847Z,74.50
2019-01-24T20:00:58.297Z,76.30
2019-01-24T20:03:33.127Z,76.60
2019-01-24T20:06:10.354Z,76.50
2019-01-24T20:08:44.598Z,76.20
2019-01-24T20:11:19.910Z,76.70
2019-01-24T20:13:58.309Z,74.50
2019-01-24T20:16:40.282Z,72.90
2019-01-24T20:19:15.959Z,74.30
2019-01-24T20:21:50.779Z,75.10
2019-01-24T20:24:25.847Z,74.40
2019-01-24T20:27:00.715Z,74.40
2019-01-24T20:29:33.863Z,75.50
2019-01-24T20:32:09.109Z,76.70
2019-01-24T20:34:46.560Z,77.40
2019-01-24T20:37:23.094Z,78.00
2019-01-24T20:39:58.611Z,77.10
2019-01-24T20:42:34.530Z,78.40
2019-01-24T20:45:10.418Z,74.40
2019-01-24T20:47:47.037Z,71.50
2019-01-24T20:50:22.815Z,72.80
2019-01-24T20:52:57.427Z,72.40
2019-01-24T20:55:33.461Z,71.40
2019-01-24T20:58:06.986Z,72.00
2019-01-24T21:00:42.030Z,72.90
2019-01-24T21:03:17.381Z,74.30
2019-01-24T21:05:54.570Z,75.60
2019-01-24T21:08:32.852Z,76.60
2019-01-24T21:11:08.047Z,69.20
2019-01-24T21:13:43.662Z,72.80
2019-01-24T21:16:20.298Z,74.60
2019-01-24T21:18:57.472Z,72.90
2019-01-24T21:21:33.623Z,72.20
2019-01-24T21:24:10.034Z,71.70
2019-01-24T21:26:39.453Z,69.30
2019-01-24T21:29:08.817Z,71.20
2019-01-24T21:31:38.230Z,71.40
2019-01-24T21:34:07.855Z,72.30
2019-01-24T21:36:37.287Z,72.40
2019-01-24T21:39:09.316Z,69.50
2019-01-24T21:41:44.770Z,70.40
2019-01-24T21:44:15.421Z,71.00
2019-01-24T21:46:52.850Z,71.30
2019-01-24T21:49:28.439Z,73.90
2019-01-24T21:51:57.711Z,73.90
2019-01-24T21:54:34.979Z,77.30
2019-01-24T21:57:24.050Z,76.90
2019-01-24T21:59:59.504Z,76.50
2019-01-24T22:02:32.792Z,76.30
2019-01-24T22:05:24.041Z,74.60
2019-01-24T22:10:56.643Z,77.00
2019-01-24T22:13:31.317Z,73.80
2019-01-24T22:16:01.655Z,72.50
2019-01-24T22:18:37.036Z,70.70
2019-01-24T22:21:08.749Z,69.70
2019-01-24T22:23:54.256Z,70.40
2019-01-24T22:29:19.289Z,69.70
2019-01-24T22:31:54.307Z,67.50
2019-01-24T22:34:35.615Z,67.50
2019-01-24T22:37:08.983Z,66.60
2019-01-24T22:39:46.759Z,65.20
2019-01-24T22:42:21.635Z,65.10
2019-01-24T22:44:55.883Z,65.90
2019-01-24T22:50:30.291Z,68.40
2019-01-24T22:53:06.352Z,68.70
2019-01-24T22:55:36.253Z,68.60
2019-01-24T22:58:07.288Z,69.00
2019-01-24T23:03:42.927Z,67.40
2019-01-24T23:09:10.842Z,68.40
2019-01-24T23:14:57.372Z,70.20
2019-01-24T23:17:35.348Z,72.00
2019-01-24T23:20:07.883Z,72.30
2019-01-24T23:22:44.304Z,72.00
2019-01-24T23:25:25.170Z,73.40
2019-01-24T23:28:01.373Z,69.20
2019-01-24T23:30:55.030Z,66.30
2019-01-24T23:33:35.564Z,68.90
2019-01-24T23:36:13.090Z,72.80
2019-01-24T23:38:49.104Z,72.70
2019-01-24T23:41:25.588Z,72.80
2019-01-24T23:43:57.787Z,70.00
2019-01-24T23:46:33.760Z,70.90
2019-01-24T23:49:08.954Z,72.00
2019-01-24T23:51:47.182Z,70.00
2019-01-24T23:54:22.727Z,70.40
2019-01-24T23:56:59.140Z,67.10
2019-01-24T23:59:30.121Z,62.50
